sensor_id;sensor_type;location;lat;lon;timestamp;temperature;humidity
13310;DHT22;6723;48.256;16.402;2023-08-06T00:00:27;16.80;99.90
13310;DHT22;6723;48.256;16.402;2023-08-06T00:02:53;16.70;99.90
13310;DHT22;6723;48.256;16.402;2023-08-06T00:05:19;16.70;99.90
13310;DHT22;6723;48.256;16.402;2023-08-06T00:07:47;16.70;99.90
13310;DHT22;6723;48.256;16.402;2023-08-06T00:10:13;16.80;99.90
13310;DHT22;6723;48.256;16.402;2023-08-06T00:12:39;16.80;99.90
13310;DHT22;6723;48.256;16.402;2023-08-06T00:15:05;16.80;99.90
13310;DHT22;6723;48.256;16.402;2023-08-06T00:17:31;16.80;99.90
13310;DHT22;6723;48.256;16.402;2023-08-06T00:19:57;16.80;99.90
13310;DHT22;6723;48.256;16.402;2023-08-06T00:22:23;16.80;99.90
13310;DHT22;6723;48.256;16.402;2023-08-06T00:24:48;16.70;99.90
13310;DHT22;6723;48.256;16.402;2023-08-06T00:27:14;16.70;99.90
13310;DHT22;6723;48.256;16.402;2023-08-06T00:29:40;16.70;99.90
13310;DHT22;6723;48.256;16.402;2023-08-06T00:32:06;16.70;99.90
13310;DHT22;6723;48.256;16.402;2023-08-06T00:34:31;16.60;99.90
13310;DHT22;6723;48.256;16.402;2023-08-06T00:36:57;16.70;99.90
13310;DHT22;6723;48.256;16.402;2023-08-06T00:39:23;16.70;99.90
13310;DHT22;6723;48.256;16.402;2023-08-06T00:41:49;16.60;99.90
13310;DHT22;6723;48.256;16.402;2023-08-06T00:44:14;16.60;99.90
13310;DHT22;6723;48.256;16.402;2023-08-06T00:46:40;16.60;99.90
13310;DHT22;6723;48.256;16.402;2023-08-06T00:49:06;16.60;99.90
13310;DHT22;6723;48.256;16.402;2023-08-06T00:51:32;16.60;99.90
13310;DHT22;6723;48.256;16.402;2023-08-06T00:53:58;16.50;99.90
13310;DHT22;6723;48.256;16.402;2023-08-06T00:56:24;16.60;99.90
13310;DHT22;6723;48.256;16.402;2023-08-06T00:58:51;16.60;99.90
13310;DHT22;6723;48.256;16.402;2023-08-06T01:01:17;16.60;99.90
13310;DHT22;6723;48.256;16.402;2023-08-06T01:03:42;16.60;99.90
13310;DHT22;6723;48.256;16.402;2023-08-06T01:06:08;16.60;99.90
13310;DHT22;6723;48.256;16.402;2023-08-06T01:08:56;16.60;99.90
13310;DHT22;6723;48.256;16.402;2023-08-06T01:14:30;16.60;99.90
13310;DHT22;6723;48.256;16.402;2023-08-06T01:16:59;16.50;99.90
13310;DHT22;6723;48.256;16.402;2023-08-06T01:19:26;16.50;99.90
13310;DHT22;6723;48.256;16.402;2023-08-06T01:21:51;16.50;99.90
13310;DHT22;6723;48.256;16.402;2023-08-06T01:24:17;16.50;99.90
13310;DHT22;6723;48.256;16.402;2023-08-06T01:26:54;16.50;99.90
13310;DHT22;6723;48.256;16.402;2023-08-06T01:29:28;16.50;99.90
13310;DHT22;6723;48.256;16.402;2023-08-06T01:31:58;16.50;99.90
13310;DHT22;6723;48.256;16.402;2023-08-06T01:34:27;16.50;99.90
13310;DHT22;6723;48.256;16.402;2023-08-06T01:36:54;16.40;99.90
13310;DHT22;6723;48.256;16.402;2023-08-06T01:39:21;16.50;99.90
13310;DHT22;6723;48.256;16.402;2023-08-06T01:41:48;16.50;99.90
13310;DHT22;6723;48.256;16.402;2023-08-06T01:44:15;16.40;99.90
13310;DHT22;6723;48.256;16.402;2023-08-06T01:46:41;16.50;99.90
13310;DHT22;6723;48.256;16.402;2023-08-06T01:49:07;16.40;99.90
13310;DHT22;6723;48.256;16.402;2023-08-06T01:51:33;16.40;99.90
13310;DHT22;6723;48.256;16.402;2023-08-06T01:53:59;16.50;99.90
13310;DHT22;6723;48.256;16.402;2023-08-06T01:56:24;16.50;99.90
13310;DHT22;6723;48.256;16.402;2023-08-06T01:58:50;16.40;99.90
13310;DHT22;6723;48.256;16.402;2023-08-06T02:01:16;16.40;99.90
13310;DHT22;6723;48.256;16.402;2023-08-06T02:03:42;16.30;99.90
13310;DHT22;6723;48.256;16.402;2023-08-06T02:06:07;16.30;99.90
13310;DHT22;6723;48.256;16.402;2023-08-06T02:08:33;16.30;99.90
13310;DHT22;6723;48.256;16.402;2023-08-06T02:10:59;16.20;99.90
13310;DHT22;6723;48.256;16.402;2023-08-06T02:13:25;16.20;99.90
13310;DHT22;6723;48.256;16.402;2023-08-06T02:15:50;16.20;99.90
13310;DHT22;6723;48.256;16.402;2023-08-06T02:18:16;16.20;99.90
13310;DHT22;6723;48.256;16.402;2023-08-06T02:20:42;16.20;99.90
13310;DHT22;6723;48.256;16.402;2023-08-06T02:23:09;16.20;99.90
13310;DHT22;6723;48.256;16.402;2023-08-06T02:25:35;16.10;99.90
13310;DHT22;6723;48.256;16.402;2023-08-06T02:28:01;16.20;99.90
13310;DHT22;6723;48.256;16.402;2023-08-06T02:30:26;16.10;99.90
13310;DHT22;6723;48.256;16.402;2023-08-06T02:32:52;16.10;99.90
13310;DHT22;6723;48.256;16.402;2023-08-06T02:35:18;16.10;99.90
13310;DHT22;6723;48.256;16.402;2023-08-06T02:37:44;16.10;99.90
13310;DHT22;6723;48.256;16.402;2023-08-06T02:40:10;16.10;99.90
13310;DHT22;6723;48.256;16.402;2023-08-06T02:42:36;16.10;99.90
13310;DHT22;6723;48.256;16.402;2023-08-06T02:45:02;16.10;99.90
13310;DHT22;6723;48.256;16.402;2023-08-06T02:47:28;16.10;99.90
13310;DHT22;6723;48.256;16.402;2023-08-06T02:49:53;16.10;99.90
13310;DHT22;6723;48.256;16.402;2023-08-06T02:52:19;16.20;99.90
13310;DHT22;6723;48.256;16.402;2023-08-06T02:54:45;16.20;99.90
13310;DHT22;6723;48.256;16.402;2023-08-06T02:57:11;16.20;99.90
13310;DHT22;6723;48.256;16.402;2023-08-06T02:59:36;16.20;99.90
13310;DHT22;6723;48.256;16.402;2023-08-06T03:02:02;16.20;99.90
13310;DHT22;6723;48.256;16.402;2023-08-06T03:04:28;16.20;99.90
13310;DHT22;6723;48.256;16.402;2023-08-06T03:06:54;16.10;99.90
13310;DHT22;6723;48.256;16.402;2023-08-06T03:09:19;16.10;99.90
13310;DHT22;6723;48.256;16.402;2023-08-06T03:11:45;16.20;99.90
13310;DHT22;6723;48.256;16.402;2023-08-06T03:14:11;16.20;99.90
13310;DHT22;6723;48.256;16.402;2023-08-06T03:16:37;16.30;99.90
13310;DHT22;6723;48.256;16.402;2023-08-06T03:19:02;16.20;99.90
13310;DHT22;6723;48.256;16.402;2023-08-06T03:21:28;16.30;99.90
13310;DHT22;6723;48.256;16.402;2023-08-06T03:23:54;16.30;99.90
13310;DHT22;6723;48.256;16.402;2023-08-06T03:26:20;16.40;99.90
13310;DHT22;6723;48.256;16.402;2023-08-06T03:28:46;16.40;99.90
13310;DHT22;6723;48.256;16.402;2023-08-06T03:31:12;16.50;99.90
13310;DHT22;6723;48.256;16.402;2023-08-06T03:33:37;16.50;99.90
13310;DHT22;6723;48.256;16.402;2023-08-06T03:36:03;16.50;99.90
13310;DHT22;6723;48.256;16.402;2023-08-06T03:38:29;16.40;99.90
13310;DHT22;6723;48.256;16.402;2023-08-06T03:40:55;16.50;99.90
13310;DHT22;6723;48.256;16.402;2023-08-06T03:43:20;16.40;99.90
13310;DHT22;6723;48.256;16.402;2023-08-06T03:45:46;16.50;99.90
13310;DHT22;6723;48.256;16.402;2023-08-06T03:48:12;16.50;99.90
13310;DHT22;6723;48.256;16.402;2023-08-06T03:50:37;16.60;99.90
13310;DHT22;6723;48.256;16.402;2023-08-06T03:53:04;16.50;99.90
13310;DHT22;6723;48.256;16.402;2023-08-06T03:55:30;16.60;99.90
13310;DHT22;6723;48.256;16.402;2023-08-06T03:57:55;16.60;99.90
13310;DHT22;6723;48.256;16.402;2023-08-06T04:00:21;16.60;99.90
13310;DHT22;6723;48.256;16.402;2023-08-06T04:02:47;16.60;99.90
13310;DHT22;6723;48.256;16.402;2023-08-06T04:05:13;16.60;99.90
13310;DHT22;6723;48.256;16.402;2023-08-06T04:07:39;16.70;99.90
13310;DHT22;6723;48.256;16.402;2023-08-06T04:10:05;16.80;99.90
13310;DHT22;6723;48.256;16.402;2023-08-06T04:12:31;16.80;99.90
13310;DHT22;6723;48.256;16.402;2023-08-06T04:15:00;16.80;99.90
13310;DHT22;6723;48.256;16.402;2023-08-06T04:17:26;16.80;99.90
13310;DHT22;6723;48.256;16.402;2023-08-06T04:19:53;16.80;99.90
13310;DHT22;6723;48.256;16.402;2023-08-06T04:22:20;16.80;99.90
13310;DHT22;6723;48.256;16.402;2023-08-06T04:24:47;16.80;99.90
13310;DHT22;6723;48.256;16.402;2023-08-06T04:27:15;16.70;99.90
13310;DHT22;6723;48.256;16.402;2023-08-06T04:29:41;16.70;99.90
13310;DHT22;6723;48.256;16.402;2023-08-06T04:32:09;16.70;99.90
13310;DHT22;6723;48.256;16.402;2023-08-06T04:34:36;16.70;99.90
13310;DHT22;6723;48.256;16.402;2023-08-06T04:37:03;16.70;99.90
13310;DHT22;6723;48.256;16.402;2023-08-06T04:39:29;16.70;99.90
13310;DHT22;6723;48.256;16.402;2023-08-06T04:41:56;16.70;99.90
13310;DHT22;6723;48.256;16.402;2023-08-06T04:44:25;16.70;99.90
13310;DHT22;6723;48.256;16.402;2023-08-06T04:46:50;16.70;99.90
13310;DHT22;6723;48.256;16.402;2023-08-06T04:49:17;16.70;99.90
13310;DHT22;6723;48.256;16.402;2023-08-06T04:51:43;16.80;99.90
13310;DHT22;6723;48.256;16.402;2023-08-06T04:54:10;16.70;99.90
13310;DHT22;6723;48.256;16.402;2023-08-06T04:56:35;16.70;99.90
13310;DHT22;6723;48.256;16.402;2023-08-06T04:59:01;16.80;99.90
13310;DHT22;6723;48.256;16.402;2023-08-06T05:01:27;16.80;99.90
13310;DHT22;6723;48.256;16.402;2023-08-06T05:03:54;16.80;99.90
13310;DHT22;6723;48.256;16.402;2023-08-06T05:06:19;16.80;99.90
13310;DHT22;6723;48.256;16.402;2023-08-06T05:08:45;16.80;99.90
13310;DHT22;6723;48.256;16.402;2023-08-06T05:11:11;16.80;99.90
13310;DHT22;6723;48.256;16.402;2023-08-06T05:13:36;16.80;99.90
13310;DHT22;6723;48.256;16.402;2023-08-06T05:16:02;16.80;99.90
13310;DHT22;6723;48.256;16.402;2023-08-06T05:18:28;16.80;99.90
13310;DHT22;6723;48.256;16.402;2023-08-06T05:20:56;16.80;99.90
13310;DHT22;6723;48.256;16.402;2023-08-06T05:23:22;16.90;99.90
13310;DHT22;6723;48.256;16.402;2023-08-06T05:25:48;16.90;99.90
13310;DHT22;6723;48.256;16.402;2023-08-06T05:28:14;16.90;99.90
13310;DHT22;6723;48.256;16.402;2023-08-06T05:30:40;16.90;99.90
13310;DHT22;6723;48.256;16.402;2023-08-06T05:33:06;16.90;99.90
13310;DHT22;6723;48.256;16.402;2023-08-06T05:35:32;17.00;99.90
13310;DHT22;6723;48.256;16.402;2023-08-06T05:37:57;17.00;99.90
13310;DHT22;6723;48.256;16.402;2023-08-06T05:40:23;17.00;99.90
13310;DHT22;6723;48.256;16.402;2023-08-06T05:42:54;17.00;99.90
13310;DHT22;6723;48.256;16.402;2023-08-06T05:45:19;17.00;99.90
13310;DHT22;6723;48.256;16.402;2023-08-06T05:47:47;17.00;99.90
13310;DHT22;6723;48.256;16.402;2023-08-06T05:50:13;17.00;99.90
13310;DHT22;6723;48.256;16.402;2023-08-06T05:52:39;17.00;99.90
13310;DHT22;6723;48.256;16.402;2023-08-06T05:55:05;17.00;99.90
13310;DHT22;6723;48.256;16.402;2023-08-06T05:57:31;17.00;99.90
13310;DHT22;6723;48.256;16.402;2023-08-06T05:59:56;17.00;99.90
13310;DHT22;6723;48.256;16.402;2023-08-06T06:02:22;17.10;99.90
13310;DHT22;6723;48.256;16.402;2023-08-06T06:04:48;17.10;99.90
13310;DHT22;6723;48.256;16.402;2023-08-06T06:07:14;17.10;99.90
13310;DHT22;6723;48.256;16.402;2023-08-06T06:09:40;17.10;99.90
13310;DHT22;6723;48.256;16.402;2023-08-06T06:12:07;17.20;99.90
13310;DHT22;6723;48.256;16.402;2023-08-06T06:14:32;17.20;99.90
13310;DHT22;6723;48.256;16.402;2023-08-06T06:16:59;17.10;99.90
13310;DHT22;6723;48.256;16.402;2023-08-06T06:19:26;17.10;99.90
13310;DHT22;6723;48.256;16.402;2023-08-06T06:21:53;17.10;99.90
13310;DHT22;6723;48.256;16.402;2023-08-06T06:24:19;17.10;99.90
13310;DHT22;6723;48.256;16.402;2023-08-06T06:26:44;17.20;99.90
13310;DHT22;6723;48.256;16.402;2023-08-06T06:29:10;17.20;99.90
13310;DHT22;6723;48.256;16.402;2023-08-06T06:31:36;17.20;99.90
13310;DHT22;6723;48.256;16.402;2023-08-06T06:34:02;17.20;99.90
13310;DHT22;6723;48.256;16.402;2023-08-06T06:36:27;17.30;99.90
13310;DHT22;6723;48.256;16.402;2023-08-06T06:38:53;17.30;99.90
13310;DHT22;6723;48.256;16.402;2023-08-06T06:41:19;17.30;99.90
13310;DHT22;6723;48.256;16.402;2023-08-06T06:43:44;17.30;99.90
13310;DHT22;6723;48.256;16.402;2023-08-06T06:46:10;17.30;99.90
13310;DHT22;6723;48.256;16.402;2023-08-06T06:48:36;17.30;99.90
13310;DHT22;6723;48.256;16.402;2023-08-06T06:51:02;17.30;99.90
13310;DHT22;6723;48.256;16.402;2023-08-06T06:53:28;17.40;99.90
13310;DHT22;6723;48.256;16.402;2023-08-06T06:56:04;17.40;99.90
13310;DHT22;6723;48.256;16.402;2023-08-06T06:58:31;17.50;99.90
13310;DHT22;6723;48.256;16.402;2023-08-06T07:00:57;17.60;99.90
13310;DHT22;6723;48.256;16.402;2023-08-06T07:03:23;17.60;99.90
13310;DHT22;6723;48.256;16.402;2023-08-06T07:05:49;17.70;99.90
13310;DHT22;6723;48.256;16.402;2023-08-06T07:08:15;17.60;99.90
13310;DHT22;6723;48.256;16.402;2023-08-06T07:10:42;17.60;99.90
13310;DHT22;6723;48.256;16.402;2023-08-06T07:13:09;17.60;99.90
13310;DHT22;6723;48.256;16.402;2023-08-06T07:15:35;17.60;99.90
13310;DHT22;6723;48.256;16.402;2023-08-06T07:18:01;17.60;99.90
13310;DHT22;6723;48.256;16.402;2023-08-06T07:20:27;17.60;99.90
13310;DHT22;6723;48.256;16.402;2023-08-06T07:22:57;17.50;99.90
13310;DHT22;6723;48.256;16.402;2023-08-06T07:25:23;17.60;99.90
13310;DHT22;6723;48.256;16.402;2023-08-06T07:27:49;17.60;99.90
13310;DHT22;6723;48.256;16.402;2023-08-06T07:30:14;17.70;99.90
13310;DHT22;6723;48.256;16.402;2023-08-06T07:32:40;17.80;99.90
13310;DHT22;6723;48.256;16.402;2023-08-06T07:35:06;17.90;99.90
13310;DHT22;6723;48.256;16.402;2023-08-06T07:37:33;17.90;99.90
13310;DHT22;6723;48.256;16.402;2023-08-06T07:39:59;18.00;99.90
13310;DHT22;6723;48.256;16.402;2023-08-06T07:42:25;18.10;99.90
13310;DHT22;6723;48.256;16.402;2023-08-06T07:44:55;18.00;99.90
13310;DHT22;6723;48.256;16.402;2023-08-06T07:47:21;18.10;99.90
13310;DHT22;6723;48.256;16.402;2023-08-06T07:49:47;18.10;99.90
13310;DHT22;6723;48.256;16.402;2023-08-06T07:52:13;18.10;99.90
13310;DHT22;6723;48.256;16.402;2023-08-06T07:54:39;18.10;99.90
13310;DHT22;6723;48.256;16.402;2023-08-06T07:57:05;18.20;99.90
13310;DHT22;6723;48.256;16.402;2023-08-06T07:59:31;18.30;99.90
13310;DHT22;6723;48.256;16.402;2023-08-06T08:01:56;18.30;99.90
13310;DHT22;6723;48.256;16.402;2023-08-06T08:04:23;18.40;99.90
13310;DHT22;6723;48.256;16.402;2023-08-06T08:06:48;18.40;99.90
13310;DHT22;6723;48.256;16.402;2023-08-06T08:09:14;18.40;99.90
13310;DHT22;6723;48.256;16.402;2023-08-06T08:11:43;18.40;99.90
13310;DHT22;6723;48.256;16.402;2023-08-06T08:14:08;18.20;99.90
13310;DHT22;6723;48.256;16.402;2023-08-06T08:16:34;18.20;99.90
13310;DHT22;6723;48.256;16.402;2023-08-06T08:19:00;18.10;99.90
13310;DHT22;6723;48.256;16.402;2023-08-06T08:21:26;18.10;99.90
13310;DHT22;6723;48.256;16.402;2023-08-06T08:23:52;18.10;99.90
13310;DHT22;6723;48.256;16.402;2023-08-06T08:26:18;18.10;99.90
13310;DHT22;6723;48.256;16.402;2023-08-06T08:28:43;18.10;99.90
13310;DHT22;6723;48.256;16.402;2023-08-06T08:31:10;18.20;99.90
13310;DHT22;6723;48.256;16.402;2023-08-06T08:33:40;18.20;99.90
13310;DHT22;6723;48.256;16.402;2023-08-06T08:36:06;18.30;99.90
13310;DHT22;6723;48.256;16.402;2023-08-06T08:38:31;18.40;99.90
13310;DHT22;6723;48.256;16.402;2023-08-06T08:40:57;18.20;99.90
13310;DHT22;6723;48.256;16.402;2023-08-06T08:43:23;18.30;99.90
13310;DHT22;6723;48.256;16.402;2023-08-06T08:45:50;18.40;99.90
13310;DHT22;6723;48.256;16.402;2023-08-06T08:48:18;18.30;99.90
13310;DHT22;6723;48.256;16.402;2023-08-06T08:50:46;18.50;99.90
13310;DHT22;6723;48.256;16.402;2023-08-06T08:53:16;18.50;99.90
13310;DHT22;6723;48.256;16.402;2023-08-06T08:55:47;18.50;99.90
13310;DHT22;6723;48.256;16.402;2023-08-06T08:58:14;18.50;99.90
13310;DHT22;6723;48.256;16.402;2023-08-06T09:00:47;18.50;99.90
13310;DHT22;6723;48.256;16.402;2023-08-06T09:03:14;18.30;99.90
13310;DHT22;6723;48.256;16.402;2023-08-06T09:05:44;18.40;99.90
13310;DHT22;6723;48.256;16.402;2023-08-06T09:08:12;18.50;99.90
13310;DHT22;6723;48.256;16.402;2023-08-06T09:10:43;18.40;99.90
13310;DHT22;6723;48.256;16.402;2023-08-06T09:13:09;18.50;99.90
13310;DHT22;6723;48.256;16.402;2023-08-06T09:15:34;18.60;99.90
13310;DHT22;6723;48.256;16.402;2023-08-06T09:18:11;18.50;99.90
13310;DHT22;6723;48.256;16.402;2023-08-06T09:20:38;18.50;99.90
13310;DHT22;6723;48.256;16.402;2023-08-06T09:23:11;18.40;99.90
13310;DHT22;6723;48.256;16.402;2023-08-06T09:25:40;18.50;99.90
13310;DHT22;6723;48.256;16.402;2023-08-06T09:28:06;18.70;99.90
13310;DHT22;6723;48.256;16.402;2023-08-06T09:30:36;18.60;99.90
13310;DHT22;6723;48.256;16.402;2023-08-06T09:33:03;18.50;99.90
13310;DHT22;6723;48.256;16.402;2023-08-06T09:35:30;18.50;99.90
13310;DHT22;6723;48.256;16.402;2023-08-06T09:38:06;18.40;99.90
13310;DHT22;6723;48.256;16.402;2023-08-06T09:40:36;18.50;99.90
13310;DHT22;6723;48.256;16.402;2023-08-06T09:43:03;18.60;99.90
13310;DHT22;6723;48.256;16.402;2023-08-06T09:45:33;18.50;99.90
13310;DHT22;6723;48.256;16.402;2023-08-06T09:48:00;18.40;99.90
13310;DHT22;6723;48.256;16.402;2023-08-06T09:50:31;18.40;99.90
13310;DHT22;6723;48.256;16.402;2023-08-06T09:52:57;18.30;99.90
13310;DHT22;6723;48.256;16.402;2023-08-06T09:55:24;18.40;99.90
13310;DHT22;6723;48.256;16.402;2023-08-06T09:57:52;18.50;99.90
13310;DHT22;6723;48.256;16.402;2023-08-06T10:00:18;18.30;99.90
13310;DHT22;6723;48.256;16.402;2023-08-06T10:02:45;18.30;99.90
13310;DHT22;6723;48.256;16.402;2023-08-06T10:05:11;18.30;99.90
13310;DHT22;6723;48.256;16.402;2023-08-06T10:07:37;18.30;99.90
13310;DHT22;6723;48.256;16.402;2023-08-06T10:10:06;18.10;99.90
13310;DHT22;6723;48.256;16.402;2023-08-06T10:12:46;18.10;99.90
13310;DHT22;6723;48.256;16.402;2023-08-06T10:15:17;18.10;99.90
13310;DHT22;6723;48.256;16.402;2023-08-06T10:17:47;18.10;99.90
13310;DHT22;6723;48.256;16.402;2023-08-06T10:20:14;18.10;99.90
13310;DHT22;6723;48.256;16.402;2023-08-06T10:22:43;18.20;99.90
13310;DHT22;6723;48.256;16.402;2023-08-06T10:25:10;18.20;99.90
13310;DHT22;6723;48.256;16.402;2023-08-06T10:27:41;18.30;99.90
13310;DHT22;6723;48.256;16.402;2023-08-06T10:32:55;18.30;99.90
13310;DHT22;6723;48.256;16.402;2023-08-06T10:38:21;18.30;99.90
13310;DHT22;6723;48.256;16.402;2023-08-06T10:41:02;18.30;99.90
13310;DHT22;6723;48.256;16.402;2023-08-06T10:43:35;18.40;99.90
13310;DHT22;6723;48.256;16.402;2023-08-06T10:46:09;18.30;99.90
13310;DHT22;6723;48.256;16.402;2023-08-06T10:51:09;18.30;99.90
13310;DHT22;6723;48.256;16.402;2023-08-06T10:53:36;18.30;99.90
13310;DHT22;6723;48.256;16.402;2023-08-06T10:56:11;18.30;99.90
13310;DHT22;6723;48.256;16.402;2023-08-06T10:58:37;18.30;99.90
13310;DHT22;6723;48.256;16.402;2023-08-06T11:01:03;18.30;99.90
13310;DHT22;6723;48.256;16.402;2023-08-06T11:03:29;18.30;99.90
13310;DHT22;6723;48.256;16.402;2023-08-06T11:05:54;18.20;99.90
13310;DHT22;6723;48.256;16.402;2023-08-06T11:08:32;18.30;99.90
13310;DHT22;6723;48.256;16.402;2023-08-06T11:13:37;18.40;99.90
13310;DHT22;6723;48.256;16.402;2023-08-06T11:16:05;18.40;99.90
13310;DHT22;6723;48.256;16.402;2023-08-06T11:18:32;18.50;99.90
13310;DHT22;6723;48.256;16.402;2023-08-06T11:20:59;18.40;99.90
13310;DHT22;6723;48.256;16.402;2023-08-06T11:23:29;18.40;99.90
13310;DHT22;6723;48.256;16.402;2023-08-06T11:25:56;18.60;99.90
13310;DHT22;6723;48.256;16.402;2023-08-06T11:28:22;18.70;99.90
13310;DHT22;6723;48.256;16.402;2023-08-06T11:30:49;18.80;99.90
13310;DHT22;6723;48.256;16.402;2023-08-06T11:33:23;18.90;99.90
13310;DHT22;6723;48.256;16.402;2023-08-06T11:35:51;18.90;99.90
13310;DHT22;6723;48.256;16.402;2023-08-06T11:38:18;18.90;99.90
13310;DHT22;6723;48.256;16.402;2023-08-06T11:40:53;18.80;99.90
13310;DHT22;6723;48.256;16.402;2023-08-06T11:43:20;18.90;99.90
13310;DHT22;6723;48.256;16.402;2023-08-06T11:45:48;18.90;99.90
13310;DHT22;6723;48.256;16.402;2023-08-06T11:48:15;18.90;99.90
13310;DHT22;6723;48.256;16.402;2023-08-06T11:50:40;18.80;99.90
13310;DHT22;6723;48.256;16.402;2023-08-06T11:53:06;18.80;99.90
13310;DHT22;6723;48.256;16.402;2023-08-06T11:55:32;18.80;99.90
13310;DHT22;6723;48.256;16.402;2023-08-06T11:58:02;18.80;99.90
13310;DHT22;6723;48.256;16.402;2023-08-06T12:00:29;18.60;99.90
13310;DHT22;6723;48.256;16.402;2023-08-06T12:02:54;18.40;99.90
13310;DHT22;6723;48.256;16.402;2023-08-06T12:05:23;18.20;99.90
13310;DHT22;6723;48.256;16.402;2023-08-06T12:07:55;18.10;99.90
13310;DHT22;6723;48.256;16.402;2023-08-06T12:10:22;18.20;99.90
13310;DHT22;6723;48.256;16.402;2023-08-06T12:12:50;18.10;99.90
13310;DHT22;6723;48.256;16.402;2023-08-06T12:15:16;18.00;99.90
13310;DHT22;6723;48.256;16.402;2023-08-06T12:17:42;17.90;99.90
13310;DHT22;6723;48.256;16.402;2023-08-06T12:20:08;17.80;99.90
13310;DHT22;6723;48.256;16.402;2023-08-06T12:22:35;18.00;99.90
13310;DHT22;6723;48.256;16.402;2023-08-06T12:25:02;17.90;99.90
13310;DHT22;6723;48.256;16.402;2023-08-06T12:27:38;17.90;99.90
13310;DHT22;6723;48.256;16.402;2023-08-06T12:30:06;17.90;99.90
13310;DHT22;6723;48.256;16.402;2023-08-06T12:32:32;17.90;99.90
13310;DHT22;6723;48.256;16.402;2023-08-06T12:34:58;17.90;99.90
13310;DHT22;6723;48.256;16.402;2023-08-06T12:37:25;17.90;99.90
13310;DHT22;6723;48.256;16.402;2023-08-06T12:39:51;18.10;99.90
13310;DHT22;6723;48.256;16.402;2023-08-06T12:42:17;18.10;99.90
13310;DHT22;6723;48.256;16.402;2023-08-06T12:44:43;18.20;99.90
13310;DHT22;6723;48.256;16.402;2023-08-06T12:47:08;18.30;99.90
13310;DHT22;6723;48.256;16.402;2023-08-06T12:49:35;18.20;99.90
13310;DHT22;6723;48.256;16.402;2023-08-06T12:52:01;18.40;99.90
13310;DHT22;6723;48.256;16.402;2023-08-06T12:54:28;18.50;99.90
13310;DHT22;6723;48.256;16.402;2023-08-06T12:56:54;18.50;99.90
13310;DHT22;6723;48.256;16.402;2023-08-06T12:59:20;18.60;99.90
13310;DHT22;6723;48.256;16.402;2023-08-06T13:01:46;18.50;99.90
13310;DHT22;6723;48.256;16.402;2023-08-06T13:04:14;18.60;99.90
13310;DHT22;6723;48.256;16.402;2023-08-06T13:06:39;18.70;99.90
13310;DHT22;6723;48.256;16.402;2023-08-06T13:09:06;18.70;99.90
13310;DHT22;6723;48.256;16.402;2023-08-06T13:11:35;18.80;99.90
13310;DHT22;6723;48.256;16.402;2023-08-06T13:14:09;19.00;99.90
13310;DHT22;6723;48.256;16.402;2023-08-06T13:16:37;19.10;99.90
13310;DHT22;6723;48.256;16.402;2023-08-06T13:19:04;19.20;99.90
13310;DHT22;6723;48.256;16.402;2023-08-06T13:21:34;19.20;99.90
13310;DHT22;6723;48.256;16.402;2023-08-06T13:24:01;19.30;99.90
13310;DHT22;6723;48.256;16.402;2023-08-06T13:26:31;19.30;99.90
13310;DHT22;6723;48.256;16.402;2023-08-06T13:28:58;19.30;99.90
13310;DHT22;6723;48.256;16.402;2023-08-06T13:31:24;19.40;99.90
13310;DHT22;6723;48.256;16.402;2023-08-06T13:33:52;19.50;99.90
13310;DHT22;6723;48.256;16.402;2023-08-06T13:36:22;19.60;99.90
13310;DHT22;6723;48.256;16.402;2023-08-06T13:38:48;19.60;99.90
13310;DHT22;6723;48.256;16.402;2023-08-06T13:41:14;19.80;99.90
13310;DHT22;6723;48.256;16.402;2023-08-06T13:43:40;19.80;99.90
13310;DHT22;6723;48.256;16.402;2023-08-06T13:46:06;19.80;99.90
13310;DHT22;6723;48.256;16.402;2023-08-06T13:48:31;19.90;99.90
13310;DHT22;6723;48.256;16.402;2023-08-06T13:50:57;20.10;99.90
13310;DHT22;6723;48.256;16.402;2023-08-06T13:53:24;20.20;99.90
13310;DHT22;6723;48.256;16.402;2023-08-06T13:55:56;20.10;99.90
13310;DHT22;6723;48.256;16.402;2023-08-06T13:58:23;20.20;99.90
13310;DHT22;6723;48.256;16.402;2023-08-06T14:00:49;20.30;99.90
13310;DHT22;6723;48.256;16.402;2023-08-06T14:03:19;20.20;99.90
13310;DHT22;6723;48.256;16.402;2023-08-06T14:05:44;20.40;99.90
13310;DHT22;6723;48.256;16.402;2023-08-06T14:08:10;20.50;99.90
13310;DHT22;6723;48.256;16.402;2023-08-06T14:10:36;20.60;99.90
13310;DHT22;6723;48.256;16.402;2023-08-06T14:13:01;20.50;99.90
13310;DHT22;6723;48.256;16.402;2023-08-06T14:15:27;20.60;99.90
13310;DHT22;6723;48.256;16.402;2023-08-06T14:17:53;20.60;99.90
13310;DHT22;6723;48.256;16.402;2023-08-06T14:20:19;20.50;99.90
13310;DHT22;6723;48.256;16.402;2023-08-06T14:22:44;20.60;99.90
13310;DHT22;6723;48.256;16.402;2023-08-06T14:25:10;20.70;99.90
13310;DHT22;6723;48.256;16.402;2023-08-06T14:27:36;20.70;99.90
13310;DHT22;6723;48.256;16.402;2023-08-06T14:30:06;20.80;99.90
13310;DHT22;6723;48.256;16.402;2023-08-06T14:32:32;20.80;99.90
13310;DHT22;6723;48.256;16.402;2023-08-06T14:34:58;20.90;99.90
13310;DHT22;6723;48.256;16.402;2023-08-06T14:37:25;20.50;99.90
13310;DHT22;6723;48.256;16.402;2023-08-06T14:39:51;20.50;99.90
13310;DHT22;6723;48.256;16.402;2023-08-06T14:42:17;20.50;99.90
13310;DHT22;6723;48.256;16.402;2023-08-06T14:44:43;20.50;99.90
13310;DHT22;6723;48.256;16.402;2023-08-06T14:47:09;20.40;99.90
13310;DHT22;6723;48.256;16.402;2023-08-06T14:49:35;20.00;99.90
13310;DHT22;6723;48.256;16.402;2023-08-06T14:52:00;19.70;99.90
13310;DHT22;6723;48.256;16.402;2023-08-06T14:54:27;19.50;99.90
13310;DHT22;6723;48.256;16.402;2023-08-06T14:56:53;19.30;99.90
13310;DHT22;6723;48.256;16.402;2023-08-06T14:59:19;18.90;99.90
13310;DHT22;6723;48.256;16.402;2023-08-06T15:01:45;18.50;99.90
13310;DHT22;6723;48.256;16.402;2023-08-06T15:04:11;18.10;99.90
13310;DHT22;6723;48.256;16.402;2023-08-06T15:06:36;17.80;99.90
13310;DHT22;6723;48.256;16.402;2023-08-06T15:09:02;17.60;99.90
13310;DHT22;6723;48.256;16.402;2023-08-06T15:11:28;17.60;99.90
13310;DHT22;6723;48.256;16.402;2023-08-06T15:13:54;17.60;99.90
13310;DHT22;6723;48.256;16.402;2023-08-06T15:16:20;17.60;99.90
13310;DHT22;6723;48.256;16.402;2023-08-06T15:18:46;17.60;99.90
13310;DHT22;6723;48.256;16.402;2023-08-06T15:21:12;17.50;99.90
13310;DHT22;6723;48.256;16.402;2023-08-06T15:23:37;17.40;99.90
13310;DHT22;6723;48.256;16.402;2023-08-06T15:26:03;17.50;99.90
13310;DHT22;6723;48.256;16.402;2023-08-06T15:28:30;17.50;99.90
13310;DHT22;6723;48.256;16.402;2023-08-06T15:30:56;17.60;99.90
13310;DHT22;6723;48.256;16.402;2023-08-06T15:33:22;17.70;99.90
13310;DHT22;6723;48.256;16.402;2023-08-06T15:35:48;17.90;99.90
13310;DHT22;6723;48.256;16.402;2023-08-06T15:38:13;17.90;99.90
13310;DHT22;6723;48.256;16.402;2023-08-06T15:40:39;18.00;99.90